sensor_id;sensor_type;location;lat;lon;timestamp;pressure;altitude;pressure_sealevel;temperature;humidity
54900;BME280;40801;41.924;25.562;2023-02-28T00:01:07;99997.69;;;12.67;74.08
54900;BME280;40801;41.924;25.562;2023-02-28T00:03:33;100010.22;;;12.77;73.73
54900;BME280;40801;41.924;25.562;2023-02-28T00:06:04;100004.59;;;12.73;73.92
54900;BME280;40801;41.924;25.562;2023-02-28T00:08:30;100006.78;;;12.71;74.28
54900;BME280;40801;41.924;25.562;2023-02-28T00:10:55;100011.63;;;12.74;74.24
54900;BME280;40801;41.924;25.562;2023-02-28T00:13:21;100013.41;;;12.79;74.31
54900;BME280;40801;41.924;25.562;2023-02-28T00:15:46;100021.91;;;12.86;74.01
54900;BME280;40801;41.924;25.562;2023-02-28T00:18:12;100034.03;;;12.88;73.41
54900;BME280;40801;41.924;25.562;2023-02-28T00:20:38;100017.41;;;12.81;73.81
54900;BME280;40801;41.924;25.562;2023-02-28T00:23:04;100019.50;;;12.84;74.24
54900;BME280;40801;41.924;25.562;2023-02-28T00:25:29;100009.19;;;12.86;73.91
54900;BME280;40801;41.924;25.562;2023-02-28T00:27:54;100014.28;;;12.88;73.61
54900;BME280;40801;41.924;25.562;2023-02-28T00:30:22;100033.53;;;12.86;73.86
54900;BME280;40801;41.924;25.562;2023-02-28T00:32:49;100031.03;;;12.90;74.03
54900;BME280;40801;41.924;25.562;2023-02-28T00:35:14;100036.25;;;12.86;74.00
54900;BME280;40801;41.924;25.562;2023-02-28T00:37:40;100044.88;;;12.88;74.22
54900;BME280;40801;41.924;25.562;2023-02-28T00:40:06;100051.19;;;12.84;75.05
54900;BME280;40801;41.924;25.562;2023-02-28T00:42:35;100048.97;;;12.86;74.76
54900;BME280;40801;41.924;25.562;2023-02-28T00:45:01;100045.16;;;12.87;74.35
54900;BME280;40801;41.924;25.562;2023-02-28T00:47:29;100040.84;;;12.86;74.72
54900;BME280;40801;41.924;25.562;2023-02-28T00:49:54;100058.09;;;12.90;74.20
54900;BME280;40801;41.924;25.562;2023-02-28T00:52:20;100061.91;;;12.89;74.44
54900;BME280;40801;41.924;25.562;2023-02-28T00:54:45;100048.69;;;12.87;74.64
54900;BME280;40801;41.924;25.562;2023-02-28T00:57:10;100059.00;;;12.85;74.36
54900;BME280;40801;41.924;25.562;2023-02-28T00:59:36;100063.22;;;12.78;74.40
54900;BME280;40801;41.924;25.562;2023-02-28T01:02:01;100069.84;;;12.85;74.16
54900;BME280;40801;41.924;25.562;2023-02-28T01:04:27;100075.56;;;12.84;73.85
54900;BME280;40801;41.924;25.562;2023-02-28T01:06:52;100076.47;;;12.79;73.68
54900;BME280;40801;41.924;25.562;2023-02-28T01:09:19;100080.38;;;12.59;74.03
54900;BME280;40801;41.924;25.562;2023-02-28T01:11:44;100081.06;;;12.65;73.41
54900;BME280;40801;41.924;25.562;2023-02-28T01:14:16;100083.88;;;12.74;73.02
54900;BME280;40801;41.924;25.562;2023-02-28T01:16:43;100084.56;;;12.65;72.96
54900;BME280;40801;41.924;25.562;2023-02-28T01:19:08;100091.59;;;12.66;72.52
54900;BME280;40801;41.924;25.562;2023-02-28T01:21:34;100084.88;;;12.64;72.69
54900;BME280;40801;41.924;25.562;2023-02-28T01:24:01;100090.09;;;12.60;72.65
54900;BME280;40801;41.924;25.562;2023-02-28T01:26:26;100088.78;;;12.58;72.49
54900;BME280;40801;41.924;25.562;2023-02-28T01:28:52;100096.72;;;12.54;72.31
54900;BME280;40801;41.924;25.562;2023-02-28T01:31:19;100095.59;;;12.55;72.07
54900;BME280;40801;41.924;25.562;2023-02-28T01:33:45;100097.00;;;12.53;71.70
54900;BME280;40801;41.924;25.562;2023-02-28T01:36:16;100097.31;;;12.51;71.79
54900;BME280;40801;41.924;25.562;2023-02-28T01:38:42;100108.53;;;12.45;71.89
54900;BME280;40801;41.924;25.562;2023-02-28T01:41:08;100109.41;;;12.40;71.49
54900;BME280;40801;41.924;25.562;2023-02-28T01:46:08;100127.03;;;12.37;71.88
54900;BME280;40801;41.924;25.562;2023-02-28T01:48:40;100116.09;;;12.15;72.24
54900;BME280;40801;41.924;25.562;2023-02-28T01:51:39;100116.00;;;12.20;71.89
54900;BME280;40801;41.924;25.562;2023-02-28T01:54:15;100129.63;;;12.15;71.47
54900;BME280;40801;41.924;25.562;2023-02-28T01:56:51;100130.41;;;12.16;71.43
54900;BME280;40801;41.924;25.562;2023-02-28T01:59:23;100123.09;;;12.16;70.88
54900;BME280;40801;41.924;25.562;2023-02-28T02:01:53;100127.19;;;12.14;70.88
54900;BME280;40801;41.924;25.562;2023-02-28T02:04:19;100133.66;;;11.99;70.64
54900;BME280;40801;41.924;25.562;2023-02-28T02:06:47;100129.44;;;11.93;70.10
54900;BME280;40801;41.924;25.562;2023-02-28T02:09:13;100131.97;;;11.84;69.78
54900;BME280;40801;41.924;25.562;2023-02-28T02:11:40;100136.59;;;11.65;70.45
54900;BME280;40801;41.924;25.562;2023-02-28T02:33:36;100168.69;;;11.47;69.37
54900;BME280;40801;41.924;25.562;2023-02-28T02:36:35;100167.91;;;11.47;68.98
54900;BME280;40801;41.924;25.562;2023-02-28T02:42:23;100183.00;;;11.48;68.63
54900;BME280;40801;41.924;25.562;2023-02-28T02:44:58;100177.91;;;11.46;68.37
54900;BME280;40801;41.924;25.562;2023-02-28T02:47:27;100171.19;;;11.44;68.42
54900;BME280;40801;41.924;25.562;2023-02-28T02:49:55;100186.09;;;11.17;68.13
54900;BME280;40801;41.924;25.562;2023-02-28T02:52:27;100186.84;;;11.23;68.31
54900;BME280;40801;41.924;25.562;2023-02-28T02:54:56;100183.44;;;11.36;67.94
54900;BME280;40801;41.924;25.562;2023-02-28T02:57:29;100179.44;;;11.34;67.61
54900;BME280;40801;41.924;25.562;2023-02-28T02:59:56;100185.41;;;11.31;67.72
54900;BME280;40801;41.924;25.562;2023-02-28T03:02:23;100187.06;;;11.27;67.68
54900;BME280;40801;41.924;25.562;2023-02-28T03:04:52;100199.13;;;11.34;67.04
54900;BME280;40801;41.924;25.562;2023-02-28T03:07:19;100206.84;;;11.22;67.24
54900;BME280;40801;41.924;25.562;2023-02-28T03:09:52;100199.22;;;11.29;66.96
54900;BME280;40801;41.924;25.562;2023-02-28T03:12:18;100199.13;;;11.34;66.65
54900;BME280;40801;41.924;25.562;2023-02-28T03:26:03;100217.13;;;11.20;65.82
54900;BME280;40801;41.924;25.562;2023-02-28T03:33:55;100211.97;;;11.00;66.47
54900;BME280;40801;41.924;25.562;2023-02-28T03:36:28;100203.22;;;11.08;66.17
54900;BME280;40801;41.924;25.562;2023-02-28T03:41:38;100202.22;;;11.04;66.07
54900;BME280;40801;41.924;25.562;2023-02-28T03:44:22;100199.88;;;11.16;65.38
54900;BME280;40801;41.924;25.562;2023-02-28T03:47:07;100210.53;;;11.07;65.36
54900;BME280;40801;41.924;25.562;2023-02-28T03:49:45;100202.53;;;10.97;65.61
54900;BME280;40801;41.924;25.562;2023-02-28T03:52:12;100205.78;;;10.99;65.71
54900;BME280;40801;41.924;25.562;2023-02-28T03:54:45;100214.53;;;11.10;65.29
54900;BME280;40801;41.924;25.562;2023-02-28T03:59:59;100215.06;;;11.12;64.68
54900;BME280;40801;41.924;25.562;2023-02-28T04:02:29;100218.47;;;10.99;65.32
54900;BME280;40801;41.924;25.562;2023-02-28T04:04:55;100219.75;;;10.77;65.76
54900;BME280;40801;41.924;25.562;2023-02-28T04:07:20;100237.78;;;10.82;65.39
54900;BME280;40801;41.924;25.562;2023-02-28T04:09:46;100238.81;;;10.57;66.29
54900;BME280;40801;41.924;25.562;2023-02-28T04:12:11;100243.81;;;10.74;65.73
54900;BME280;40801;41.924;25.562;2023-02-28T04:14:37;100248.91;;;10.75;65.51
54900;BME280;40801;41.924;25.562;2023-02-28T04:17:02;100246.41;;;10.84;65.42
54900;BME280;40801;41.924;25.562;2023-02-28T04:19:28;100248.06;;;10.80;65.49
54900;BME280;40801;41.924;25.562;2023-02-28T04:21:53;100249.44;;;10.77;65.42
54900;BME280;40801;41.924;25.562;2023-02-28T04:24:21;100253.63;;;10.60;66.06
54900;BME280;40801;41.924;25.562;2023-02-28T04:26:50;100250.00;;;10.74;65.49
54900;BME280;40801;41.924;25.562;2023-02-28T04:29:25;100251.56;;;10.80;65.20
54900;BME280;40801;41.924;25.562;2023-02-28T04:31:52;100254.03;;;10.77;65.33
54900;BME280;40801;41.924;25.562;2023-02-28T04:34:23;100261.31;;;10.76;65.47
54900;BME280;40801;41.924;25.562;2023-02-28T04:36:49;100268.03;;;10.79;65.30
54900;BME280;40801;41.924;25.562;2023-02-28T04:39:16;100260.81;;;10.69;65.77
54900;BME280;40801;41.924;25.562;2023-02-28T04:41:44;100262.47;;;10.70;65.52
54900;BME280;40801;41.924;25.562;2023-02-28T04:44:09;100258.63;;;10.76;65.54
54900;BME280;40801;41.924;25.562;2023-02-28T04:46:34;100255.56;;;10.83;65.49
54900;BME280;40801;41.924;25.562;2023-02-28T04:49:00;100262.41;;;10.75;65.54
54900;BME280;40801;41.924;25.562;2023-02-28T04:51:25;100269.69;;;10.75;65.50
54900;BME280;40801;41.924;25.562;2023-02-28T04:53:51;100279.88;;;10.83;65.32
54900;BME280;40801;41.924;25.562;2023-02-28T04:56:18;100285.50;;;10.86;65.20
54900;BME280;40801;41.924;25.562;2023-02-28T04:58:44;100285.94;;;10.99;64.92
54900;BME280;40801;41.924;25.562;2023-02-28T05:01:22;100297.91;;;10.88;64.92
54900;BME280;40801;41.924;25.562;2023-02-28T05:03:48;100292.78;;;10.86;65.22
54900;BME280;40801;41.924;25.562;2023-02-28T05:06:15;100296.28;;;10.86;65.10
54900;BME280;40801;41.924;25.562;2023-02-28T05:08:41;100299.31;;;10.80;65.32
54900;BME280;40801;41.924;25.562;2023-02-28T05:11:12;100296.66;;;10.75;65.62
54900;BME280;40801;41.924;25.562;2023-02-28T05:13:38;100299.41;;;10.70;65.72
54900;BME280;40801;41.924;25.562;2023-02-28T05:16:04;100299.72;;;10.63;66.11
54900;BME280;40801;41.924;25.562;2023-02-28T05:18:29;100304.81;;;10.70;65.85
54900;BME280;40801;41.924;25.562;2023-02-28T05:20:55;100309.25;;;10.84;65.39
54900;BME280;40801;41.924;25.562;2023-02-28T05:23:21;100304.66;;;10.85;65.71
54900;BME280;40801;41.924;25.562;2023-02-28T05:25:47;100304.38;;;10.86;65.15
54900;BME280;40801;41.924;25.562;2023-02-28T05:28:12;100306.44;;;10.71;66.00
54900;BME280;40801;41.924;25.562;2023-02-28T05:30:38;100311.53;;;10.72;65.74
54900;BME280;40801;41.924;25.562;2023-02-28T05:33:03;100316.66;;;10.74;65.85
54900;BME280;40801;41.924;25.562;2023-02-28T05:35:29;100319.06;;;10.75;65.97
54900;BME280;40801;41.924;25.562;2023-02-28T05:37:54;100320.94;;;10.75;65.61
54900;BME280;40801;41.924;25.562;2023-02-28T05:40:19;100331.78;;;10.70;66.06
54900;BME280;40801;41.924;25.562;2023-02-28T05:42:46;100326.97;;;10.62;66.46
54900;BME280;40801;41.924;25.562;2023-02-28T05:45:12;100335.91;;;10.57;66.64
54900;BME280;40801;41.924;25.562;2023-02-28T05:47:37;100343.72;;;10.59;66.66
54900;BME280;40801;41.924;25.562;2023-02-28T05:50:04;100349.94;;;10.59;66.63
54900;BME280;40801;41.924;25.562;2023-02-28T05:52:29;100347.91;;;10.41;67.27
54900;BME280;40801;41.924;25.562;2023-02-28T05:54:55;100342.75;;;10.44;67.31
54900;BME280;40801;41.924;25.562;2023-02-28T05:57:21;100332.75;;;10.50;67.11
54900;BME280;40801;41.924;25.562;2023-02-28T05:59:46;100332.06;;;10.29;67.86
54900;BME280;40801;41.924;25.562;2023-02-28T06:02:14;100338.97;;;10.45;67.72
54900;BME280;40801;41.924;25.562;2023-02-28T06:04:40;100347.50;;;10.58;67.13
54900;BME280;40801;41.924;25.562;2023-02-28T06:07:07;100346.03;;;10.36;67.76
54900;BME280;40801;41.924;25.562;2023-02-28T06:09:32;100358.88;;;10.54;66.99
54900;BME280;40801;41.924;25.562;2023-02-28T06:11:59;100368.91;;;10.44;67.71
54900;BME280;40801;41.924;25.562;2023-02-28T06:14:25;100370.22;;;10.51;67.37
54900;BME280;40801;41.924;25.562;2023-02-28T06:16:51;100390.19;;;10.50;67.45
54900;BME280;40801;41.924;25.562;2023-02-28T06:19:17;100384.72;;;10.61;67.02
54900;BME280;40801;41.924;25.562;2023-02-28T06:21:42;100385.56;;;10.56;67.49
54900;BME280;40801;41.924;25.562;2023-02-28T06:24:08;100383.13;;;10.54;67.45
54900;BME280;40801;41.924;25.562;2023-02-28T06:26:33;100386.53;;;10.26;68.23
54900;BME280;40801;41.924;25.562;2023-02-28T06:28:59;100394.03;;;10.34;68.09
54900;BME280;40801;41.924;25.562;2023-02-28T06:31:26;100401.34;;;10.29;68.63
54900;BME280;40801;41.924;25.562;2023-02-28T06:33:54;100402.41;;;10.33;68.46
54900;BME280;40801;41.924;25.562;2023-02-28T06:36:20;100406.16;;;10.37;68.46
54900;BME280;40801;41.924;25.562;2023-02-28T06:38:46;100410.22;;;10.34;68.79
54900;BME280;40801;41.924;25.562;2023-02-28T06:41:16;100418.63;;;10.22;69.34
54900;BME280;40801;41.924;25.562;2023-02-28T06:43:42;100399.25;;;10.15;69.67
54900;BME280;40801;41.924;25.562;2023-02-28T06:46:11;100399.25;;;10.15;70.12
54900;BME280;40801;41.924;25.562;2023-02-28T06:48:37;100394.91;;;10.24;69.77
54900;BME280;40801;41.924;25.562;2023-02-28T06:53:29;100401.84;;;10.41;69.26
54900;BME280;40801;41.924;25.562;2023-02-28T06:55:54;100396.66;;;10.49;69.04
54900;BME280;40801;41.924;25.562;2023-02-28T06:58:20;100391.53;;;10.48;69.16
54900;BME280;40801;41.924;25.562;2023-02-28T07:00:46;100388.50;;;10.60;68.80
54900;BME280;40801;41.924;25.562;2023-02-28T07:03:15;100402.00;;;10.54;69.25
54900;BME280;40801;41.924;25.562;2023-02-28T07:05:40;100399.31;;;10.54;69.17
54900;BME280;40801;41.924;25.562;2023-02-28T07:08:06;100395.38;;;10.37;69.60
54900;BME280;40801;41.924;25.562;2023-02-28T07:10:37;100394.06;;;10.29;70.26
54900;BME280;40801;41.924;25.562;2023-02-28T07:13:04;100402.94;;;10.35;70.20
54900;BME280;40801;41.924;25.562;2023-02-28T07:15:29;100403.69;;;10.40;70.23
54900;BME280;40801;41.924;25.562;2023-02-28T07:17:55;100400.97;;;10.50;70.03
54900;BME280;40801;41.924;25.562;2023-02-28T07:20:22;100411.47;;;10.52;69.91
54900;BME280;40801;41.924;25.562;2023-02-28T07:22:48;100411.69;;;10.61;69.74
54900;BME280;40801;41.924;25.562;2023-02-28T07:25:20;100398.88;;;10.42;70.61
54900;BME280;40801;41.924;25.562;2023-02-28T07:27:46;100398.31;;;10.45;70.87
54900;BME280;40801;41.924;25.562;2023-02-28T07:30:12;100416.16;;;10.31;71.28
54900;BME280;40801;41.924;25.562;2023-02-28T07:32:37;100417.19;;;10.45;70.89
54900;BME280;40801;41.924;25.562;2023-02-28T07:35:03;100416.88;;;10.52;70.50
54900;BME280;40801;41.924;25.562;2023-02-28T07:37:29;100404.44;;;10.56;70.68
54900;BME280;40801;41.924;25.562;2023-02-28T07:39:56;100398.72;;;10.63;70.42
54900;BME280;40801;41.924;25.562;2023-02-28T07:42:22;100397.59;;;10.69;70.39
54900;BME280;40801;41.924;25.562;2023-02-28T07:44:48;100404.84;;;10.78;70.10
54900;BME280;40801;41.924;25.562;2023-02-28T07:47:13;100404.25;;;10.81;69.87
54900;BME280;40801;41.924;25.562;2023-02-28T07:49:39;100417.47;;;10.83;69.94
54900;BME280;40801;41.924;25.562;2023-02-28T07:52:05;100410.22;;;10.78;70.03
54900;BME280;40801;41.924;25.562;2023-02-28T07:54:31;100404.03;;;10.78;70.08
54900;BME280;40801;41.924;25.562;2023-02-28T07:56:57;100408.84;;;10.81;69.58
54900;BME280;40801;41.924;25.562;2023-02-28T07:59:22;100418.81;;;10.85;69.46
54900;BME280;40801;41.924;25.562;2023-02-28T08:01:48;100422.72;;;10.64;70.16
54900;BME280;40801;41.924;25.562;2023-02-28T08:04:16;100429.72;;;10.65;70.22
54900;BME280;40801;41.924;25.562;2023-02-28T08:06:42;100430.53;;;10.66;70.39
54900;BME280;40801;41.924;25.562;2023-02-28T08:09:07;100428.06;;;10.69;70.50
54900;BME280;40801;41.924;25.562;2023-02-28T08:11:33;100425.84;;;10.81;70.17
54900;BME280;40801;41.924;25.562;2023-02-28T08:13:58;100432.41;;;10.70;70.59
54900;BME280;40801;41.924;25.562;2023-02-28T08:16:24;100428.38;;;10.63;70.72
54900;BME280;40801;41.924;25.562;2023-02-28T08:18:50;100428.50;;;10.86;69.98
54900;BME280;40801;41.924;25.562;2023-02-28T08:21:16;100431.97;;;10.92;70.03
54900;BME280;40801;41.924;25.562;2023-02-28T08:23:42;100434.09;;;10.95;69.79
54900;BME280;40801;41.924;25.562;2023-02-28T08:26:07;100433.66;;;10.83;70.45
54900;BME280;40801;41.924;25.562;2023-02-28T08:28:33;100436.31;;;10.88;70.13
54900;BME280;40801;41.924;25.562;2023-02-28T08:30:59;100429.50;;;10.96;70.28
54900;BME280;40801;41.924;25.562;2023-02-28T08:33:25;100425.25;;;10.90;70.61
54900;BME280;40801;41.924;25.562;2023-02-28T08:35:55;100428.22;;;10.88;70.57
54900;BME280;40801;41.924;25.562;2023-02-28T08:38:22;100430.59;;;10.95;70.53
54900;BME280;40801;41.924;25.562;2023-02-28T08:40:47;100422.69;;;11.08;70.15
54900;BME280;40801;41.924;25.562;2023-02-28T08:43:13;100419.78;;;11.00;70.33
54900;BME280;40801;41.924;25.562;2023-02-28T08:45:38;100427.34;;;10.98;70.87
54900;BME280;40801;41.924;25.562;2023-02-28T08:48:04;100425.72;;;10.97;71.54
54900;BME280;40801;41.924;25.562;2023-02-28T08:50:29;100426.28;;;10.99;71.29
54900;BME280;40801;41.924;25.562;2023-02-28T08:52:55;100434.94;;;10.91;71.76
54900;BME280;40801;41.924;25.562;2023-02-28T08:55:20;100423.91;;;10.87;72.71
54900;BME280;40801;41.924;25.562;2023-02-28T08:57:45;100420.44;;;10.81;72.48
54900;BME280;40801;41.924;25.562;2023-02-28T09:00:11;100436.66;;;10.81;73.02
54900;BME280;40801;41.924;25.562;2023-02-28T09:02:39;100426.34;;;10.89;72.78
54900;BME280;40801;41.924;25.562;2023-02-28T09:05:05;100431.41;;;10.95;72.67
54900;BME280;40801;41.924;25.562;2023-02-28T09:07:30;100438.97;;;10.93;73.30
54900;BME280;40801;41.924;25.562;2023-02-28T09:09:56;100436.78;;;11.00;73.08
54900;BME280;40801;41.924;25.562;2023-02-28T09:12:27;100432.91;;;11.11;72.31
54900;BME280;40801;41.924;25.562;2023-02-28T09:14:53;100434.06;;;11.05;73.38
54900;BME280;40801;41.924;25.562;2023-02-28T09:17:19;100430.50;;;11.10;73.14
54900;BME280;40801;41.924;25.562;2023-02-28T09:19:45;100424.88;;;11.06;73.53
54900;BME280;40801;41.924;25.562;2023-02-28T09:22:12;100430.75;;;11.13;72.80
54900;BME280;40801;41.924;25.562;2023-02-28T09:24:38;100411.31;;;11.11;73.45
54900;BME280;40801;41.924;25.562;2023-02-28T09:27:04;100402.31;;;11.21;73.31
54900;BME280;40801;41.924;25.562;2023-02-28T09:29:31;100402.75;;;11.33;72.96
54900;BME280;40801;41.924;25.562;2023-02-28T09:31:56;100398.97;;;11.34;72.42
54900;BME280;40801;41.924;25.562;2023-02-28T09:34:24;100407.03;;;11.39;72.95
54900;BME280;40801;41.924;25.562;2023-02-28T09:36:49;100413.28;;;11.35;73.45
54900;BME280;40801;41.924;25.562;2023-02-28T09:39:20;100399.97;;;11.43;73.24
54900;BME280;40801;41.924;25.562;2023-02-28T09:41:48;100394.31;;;11.40;73.41
54900;BME280;40801;41.924;25.562;2023-02-28T09:44:39;100395.00;;;11.51;73.88
54900;BME280;40801;41.924;25.562;2023-02-28T09:47:38;100401.38;;;11.65;73.21
54900;BME280;40801;41.924;25.562;2023-02-28T09:52:38;100411.72;;;11.82;72.00
54900;BME280;40801;41.924;25.562;2023-02-28T09:55:33;100411.81;;;11.71;72.01
54900;BME280;40801;41.924;25.562;2023-02-28T09:58:02;100415.63;;;11.70;71.97
54900;BME280;40801;41.924;25.562;2023-02-28T10:00:39;100416.25;;;11.62;72.75
54900;BME280;40801;41.924;25.562;2023-02-28T10:03:30;100420.00;;;11.66;72.26
54900;BME280;40801;41.924;25.562;2023-02-28T10:08:37;100419.69;;;11.68;72.17
54900;BME280;40801;41.924;25.562;2023-02-28T10:11:07;100413.38;;;11.77;71.71
54900;BME280;40801;41.924;25.562;2023-02-28T10:13:50;100404.88;;;11.65;72.04
54900;BME280;40801;41.924;25.562;2023-02-28T10:18:51;100394.69;;;11.57;72.21
54900;BME280;40801;41.924;25.562;2023-02-28T10:21:21;100394.13;;;11.60;71.83
54900;BME280;40801;41.924;25.562;2023-02-28T10:23:51;100386.09;;;11.79;71.48
54900;BME280;40801;41.924;25.562;2023-02-28T10:26:18;100393.91;;;11.81;71.40
54900;BME280;40801;41.924;25.562;2023-02-28T10:28:43;100382.22;;;11.85;71.39
54900;BME280;40801;41.924;25.562;2023-02-28T10:31:22;100380.31;;;11.91;70.79
54900;BME280;40801;41.924;25.562;2023-02-28T10:33:48;100371.41;;;11.85;70.87
54900;BME280;40801;41.924;25.562;2023-02-28T10:36:16;100376.78;;;11.90;70.67
54900;BME280;40801;41.924;25.562;2023-02-28T10:38:42;100366.56;;;12.06;70.73
54900;BME280;40801;41.924;25.562;2023-02-28T10:41:13;100365.47;;;12.07;70.05
54900;BME280;40801;41.924;25.562;2023-02-28T10:43:40;100358.53;;;12.01;70.10
54900;BME280;40801;41.924;25.562;2023-02-28T10:48:44;100367.75;;;12.00;69.32
54900;BME280;40801;41.924;25.562;2023-02-28T10:51:11;100368.38;;;11.68;70.52
54900;BME280;40801;41.924;25.562;2023-02-28T10:53:45;100363.75;;;11.68;70.24
54900;BME280;40801;41.924;25.562;2023-02-28T10:56:20;100362.31;;;11.76;70.44
54900;BME280;40801;41.924;25.562;2023-02-28T10:58:56;100350.97;;;11.79;70.25
54900;BME280;40801;41.924;25.562;2023-02-28T11:03:58;100349.97;;;11.94;70.26
54900;BME280;40801;41.924;25.562;2023-02-28T11:06:31;100340.84;;;12.08;69.58
54900;BME280;40801;41.924;25.562;2023-02-28T11:08:58;100340.75;;;12.19;69.60
54900;BME280;40801;41.924;25.562;2023-02-28T11:11:26;100343.44;;;12.19;69.26
54900;BME280;40801;41.924;25.562;2023-02-28T11:13:56;100342.34;;;12.20;68.52
54900;BME280;40801;41.924;25.562;2023-02-28T11:16:32;100337.22;;;12.18;68.45
54900;BME280;40801;41.924;25.562;2023-02-28T11:18:58;100343.41;;;12.00;68.85
54900;BME280;40801;41.924;25.562;2023-02-28T11:21:52;100352.03;;;12.02;68.87
54900;BME280;40801;41.924;25.562;2023-02-28T11:24:22;100346.00;;;11.62;70.43
54900;BME280;40801;41.924;25.562;2023-02-28T11:26:49;100344.22;;;11.53;70.26
54900;BME280;40801;41.924;25.562;2023-02-28T11:29:22;100343.88;;;11.59;70.36
54900;BME280;40801;41.924;25.562;2023-02-28T11:34:28;100345.28;;;11.57;70.32
54900;BME280;40801;41.924;25.562;2023-02-28T11:36:56;100343.47;;;11.71;69.74
54900;BME280;40801;41.924;25.562;2023-02-28T11:39:23;100340.09;;;11.60;69.94
54900;BME280;40801;41.924;25.562;2023-02-28T11:47:42;100328.41;;;11.65;70.03
54900;BME280;40801;41.924;25.562;2023-02-28T11:53:05;100326.97;;;11.48;71.81
54900;BME280;40801;41.924;25.562;2023-02-28T11:55:52;100323.19;;;11.49;73.00
54900;BME280;40801;41.924;25.562;2023-02-28T11:58:55;100329.66;;;11.48;73.82
54900;BME280;40801;41.924;25.562;2023-02-28T12:04:34;100316.00;;;11.40;74.73
54900;BME280;40801;41.924;25.562;2023-02-28T12:07:18;100323.69;;;11.52;73.57
54900;BME280;40801;41.924;25.562;2023-02-28T12:18:38;100335.44;;;11.66;75.88
54900;BME280;40801;41.924;25.562;2023-02-28T12:25:00;100332.38;;;11.72;73.73
54900;BME280;40801;41.924;25.562;2023-02-28T12:27:10;100318.19;;;11.62;74.38
54900;BME280;40801;41.924;25.562;2023-02-28T12:29:52;100327.03;;;11.67;74.25
54900;BME280;40801;41.924;25.562;2023-02-28T12:32:30;100324.34;;;11.67;74.63
54900;BME280;40801;41.924;25.562;2023-02-28T12:35:28;100325.53;;;11.56;75.85
54900;BME280;40801;41.924;25.562;2023-02-28T12:38:06;100323.59;;;11.62;75.35
54900;BME280;40801;41.924;25.562;2023-02-28T12:40:43;100313.59;;;11.62;75.48
54900;BME280;40801;41.924;25.562;2023-02-28T12:43:12;100310.88;;;11.62;75.53
54900;BME280;40801;41.924;25.562;2023-02-28T12:46:00;100313.91;;;11.56;76.02
54900;BME280;40801;41.924;25.562;2023-02-28T12:48:37;100310.38;;;11.60;74.70
54900;BME280;40801;41.924;25.562;2023-02-28T12:51:06;100306.50;;;11.66;74.47
54900;BME280;40801;41.924;25.562;2023-02-28T12:56:30;100301.69;;;11.63;74.98
54900;BME280;40801;41.924;25.562;2023-02-28T12:59:05;100301.78;;;11.53;75.65
54900;BME280;40801;41.924;25.562;2023-02-28T13:10:21;100296.97;;;11.26;77.23
54900;BME280;40801;41.924;25.562;2023-02-28T13:12:49;100300.94;;;11.34;76.44
54900;BME280;40801;41.924;25.562;2023-02-28T13:15:24;100297.53;;;11.23;77.11
54900;BME280;40801;41.924;25.562;2023-02-28T13:17:53;100295.13;;;11.22;77.63
54900;BME280;40801;41.924;25.562;2023-02-28T13:20:21;100292.38;;;11.27;77.07
54900;BME280;40801;41.924;25.562;2023-02-28T13:22:48;100301.03;;;11.00;79.23
54900;BME280;40801;41.924;25.562;2023-02-28T13:27:58;100294.25;;;11.02;78.88
54900;BME280;40801;41.924;25.562;2023-02-28T13:33:28;100286.00;;;11.17;77.71
54900;BME280;40801;41.924;25.562;2023-02-28T13:38:36;100283.19;;;11.28;78.21
54900;BME280;40801;41.924;25.562;2023-02-28T13:44:12;100285.34;;;11.26;77.04
54900;BME280;40801;41.924;25.562;2023-02-28T13:49:26;100287.38;;;11.15;77.90
54900;BME280;40801;41.924;25.562;2023-02-28T14:05:26;100289.81;;;10.88;78.56
54900;BME280;40801;41.924;25.562;2023-02-28T14:07:57;100296.00;;;10.88;78.18
54900;BME280;40801;41.924;25.562;2023-02-28T14:10:31;100290.19;;;10.76;79.46
54900;BME280;40801;41.924;25.562;2023-02-28T14:15:43;100288.19;;;10.86;79.38
54900;BME280;40801;41.924;25.562;2023-02-28T14:18:17;100295.16;;;10.93;78.68
54900;BME280;40801;41.924;25.562;2023-02-28T14:20:45;100289.81;;;10.88;78.51
54900;BME280;40801;41.924;25.562;2023-02-28T14:31:29;100293.63;;;10.81;79.02
54900;BME280;40801;41.924;25.562;2023-02-28T14:36:42;100298.97;;;10.86;78.83
54900;BME280;40801;41.924;25.562;2023-02-28T14:39:13;100297.13;;;10.82;78.70
54900;BME280;40801;41.924;25.562;2023-02-28T14:41:42;100304.16;;;10.83;78.54
54900;BME280;40801;41.924;25.562;2023-02-28T14:44:22;100308.97;;;10.86;79.40
54900;BME280;40801;41.924;25.562;2023-02-28T14:47:02;100314.66;;;10.84;79.58
54900;BME280;40801;41.924;25.562;2023-02-28T14:49:37;100310.06;;;10.85;79.43
54900;BME280;40801;41.924;25.562;2023-02-28T14:52:32;100310.34;;;10.83;79.45
54900;BME280;40801;41.924;25.562;2023-02-28T14:55:23;100320.63;;;10.81;78.84
54900;BME280;40801;41.924;25.562;2023-02-28T14:57:55;100316.88;;;10.77;79.39
54900;BME280;40801;41.924;25.562;2023-02-28T15:00:22;100302.38;;;10.68;79.61
54900;BME280;40801;41.924;25.562;2023-02-28T15:02:48;100303.75;;;10.66;79.77
54900;BME280;40801;41.924;25.562;2023-02-28T15:07:42;100315.09;;;10.63;79.81
54900;BME280;40801;41.924;25.562;2023-02-28T15:15:16;100320.06;;;10.50;79.88
54900;BME280;40801;41.924;25.562;2023-02-28T15:17:45;100331.94;;;10.49;79.56
54900;BME280;40801;41.924;25.562;2023-02-28T15:20:13;100332.22;;;10.48;79.90